Latest Weather Observations for Lake Macquarie - Cooranbong

IDN60901

Issued at 4:21 pm EDT Friday 16 November 2018 (issued every 10 minutes, with the page automatically refreshed every 10 minutes)

About weather observations | Map of Sydney area stations | Latest observations for Sydney area | Other Formats
Station Details ID: 061412 Name: LAKE MACQUARIE AWS Lat: -33.09 Lon: 151.46 Height: 6.0 m
Data from the previous 72 hours. | See also: Recent months at Lake Macquarie - Cooranbong
Date/Time
EDT
Temp
°C
App
Temp
°C
Dew
Point
°C
Rel
Hum
%
Delta-T
°C
Wind Press
QNH
hPa
Press
MSL
hPa
Rain since
9am
mm
Dir  Spd
km/h
Gust
km/h
Spd
kts
Gust
kts
16/04:00pm 20.1 20.5 15.3 74 2.8 SW 7 13 4 7 1018.3 1018.3 0.2
16/03:30pm 19.8 20.1 14.6 72 3.0 SW 6 11 3 6 1018.5 1018.5 0.2
16/03:00pm 20.3 20.3 14.2 68 3.5 SSE 7 13 4 7 1018.7 1018.7 0.2
16/02:30pm 20.9 21.2 14.5 67 3.7 S 6 15 3 8 1019.1 1019.1 0.2
16/02:00pm 20.3 20.5 14.2 68 3.5 SSW 6 15 3 8 1019.4 1019.4 0.2
16/01:30pm 19.7 20.1 14.7 73 2.9 S 6 9 3 5 1019.8 1019.8 0.2
16/01:00pm 19.3 19.5 14.8 75 2.6 S 7 15 4 8 1020.1 1020.1 0.2
16/12:30pm 19.0 19.5 15.1 78 2.3 WSW 6 13 3 7 1020.4 1020.4 0.2
16/12:00pm 18.4 19.5 15.5 83 1.7 SSW 4 9 2 5 1020.8 1020.8 0.2
16/11:30am 17.8 18.7 15.1 84 1.6 SSW 4 7 2 4 1021.1 1021.1 0.2
16/11:00am 17.2 17.8 15.4 89 1.0 SSE 6 11 3 6 1021.3 1021.3 0.2
16/10:30am 17.5 18.1 14.2 81 1.9 WSW 4 11 2 6 1021.2 1021.2 0.2
16/10:00am 17.5 18.0 15.0 85 1.4 WSW 6 9 3 5 1021.3 1021.3 0.2
16/09:30am 16.7 16.9 14.2 85 1.4 WSW 6 11 3 6 1021.3 1021.3 0.2
16/09:00am 16.4 16.9 14.1 86 1.3 SW 4 7 2 4 1021.4 1021.4 6.6
16/08:30am 16.6 17.2 14.2 86 1.4 SW 4 7 2 4 1021.5 1021.5 6.6
16/08:00am 16.0 16.4 13.7 86 1.3 SW 4 7 2 4 1021.5 1021.5 6.6
16/07:30am 15.9 16.7 13.7 87 1.2 SW 2 4 1 2 1021.2 1021.2 6.6
16/07:00am 16.0 16.1 13.8 87 1.2 SW 6 13 3 7 1021.0 1021.0 6.6
16/06:30am 15.8 16.5 13.5 86 1.3 W 2 6 1 3 1021.2 1021.2 6.6
16/06:00am 15.9 16.3 13.6 86 1.3 SSW 4 11 2 6 1021.0 1021.0 6.6
16/05:30am 16.0 16.3 13.5 85 1.4 WSW 4 7 2 4 1020.6 1020.6 6.6
16/05:00am 16.0 16.3 13.5 85 1.4 SW 4 9 2 5 1020.5 1020.5 6.6
16/04:30am 16.0 16.7 13.5 85 1.4 SW 2 6 1 3 1020.4 1020.4 6.6
16/04:00am 15.9 16.3 13.6 86 1.3 WSW 4 6 2 3 1020.5 1020.5 6.6
16/03:30am 16.0 16.5 14.0 88 1.1 SW 4 7 2 4 1020.7 1020.7 6.6
16/03:00am 16.0 16.6 14.2 89 1.0 SW 4 9 2 5 1021.0 1021.0 6.6
16/02:30am 16.1 16.8 14.6 91 0.9 SW 4 9 2 5 1021.1 1021.1 6.6
16/02:00am 16.1 16.4 14.6 91 0.9 SSW 6 11 3 6 1021.2 1021.2 6.6
16/01:30am 16.1 16.9 14.8 92 0.7 SW 4 9 2 5 1021.5 1021.5 6.6
16/01:00am 16.2 17.1 15.1 93 0.6 SW 4 9 2 5 1021.8 1021.8 6.6
16/12:30am 16.2 17.1 15.1 93 0.6 SW 4 9 2 5 1021.9 1021.9 6.6
16/12:00am 16.2 17.1 15.2 94 0.6 SW 4 11 2 6 1022.2 1022.2 6.6
 
Date/Time
EDT
Temp
°C
App
Temp
°C
Dew
Point
°C
Rel
Hum
%
Delta-T
°C
Wind Press
QNH
hPa
Press
MSL
hPa
Rain since
9am
mm
Dir  Spd
km/h
Gust
km/h
Spd
kts
Gust
kts
15/11:30pm 16.3 17.3 15.3 94 0.6 SSW 4 7 2 4 1022.5 1022.5 6.6
15/11:00pm 16.3 16.9 15.3 94 0.6 SSW 6 9 3 5 1022.9 1022.9 6.6
15/10:30pm 16.4 16.8 15.4 94 0.6 S 7 11 4 6 1022.7 1022.7 6.6
15/10:00pm 16.5 17.2 15.5 94 0.6 SSW 6 15 3 8 1022.7 1022.7 6.2
15/09:30pm 17.1 18.1 16.3 95 0.5 S 6 13 3 7 1022.4 1022.4 3.2
15/09:00pm 17.1 17.9 16.3 95 0.5 SSE 7 17 4 9 1021.9 1021.9 2.8
15/08:30pm 17.4 18.2 16.4 94 0.6 S 7 13 4 7 1021.7 1021.7 2.4
15/08:00pm 17.7 18.8 16.6 93 0.7 S 6 11 3 6 1021.2 1021.2 1.4
15/07:30pm 18.1 19.1 16.4 90 1.0 SSE 6 13 3 7 1021.1 1021.1 0.8
15/07:00pm 18.0 19.1 16.5 91 0.9 S 6 11 3 6 1020.6 1020.6 0.8
15/06:30pm 17.9 19.4 16.6 92 0.8 SSW 4 6 2 3 1019.8 1019.8 0.8
15/06:00pm 17.9 18.4 16.6 92 0.8 S 9 22 5 12 1019.8 1019.8 0.8
15/05:30pm 18.1 19.2 17.0 93 0.7 S 7 19 4 10 1019.4 1019.4 0.6
15/05:00pm 18.4 19.1 17.1 92 0.8 S 9 17 5 9 1019.2 1019.2 0.4
15/04:30pm 19.0 20.0 17.7 92 0.8 S 9 22 5 12 1019.1 1019.1 0.2
15/04:00pm 19.3 20.3 17.8 91 0.9 SSE 9 19 5 10 1018.5 1018.5 0.2
15/03:30pm 19.9 20.9 17.7 87 1.4 SE 9 19 5 10 1018.3 1018.3 0.0
15/03:00pm 21.6 21.9 17.0 75 2.8 S 11 20 6 11 1018.2 1018.2 0.0
15/02:30pm 22.8 23.0 16.8 69 3.7 SSE 11 28 6 15 1018.2 1018.2 0.0
15/02:00pm 23.1 23.7 16.9 68 3.8 SSE 9 22 5 12 1018.5 1018.5 0.0
15/01:30pm 24.0 24.2 16.8 64 4.4 SSE 11 24 6 13 1018.2 1018.2 0.0
15/01:00pm 23.9 23.7 16.7 64 4.4 S 13 28 7 15 1018.2 1018.2 0.0
15/12:30pm 24.3 24.6 17.8 67 4.1 SE 13 24 7 13 1018.3 1018.3 0.0
15/12:00pm 23.7 23.9 17.7 69 3.7 SE 13 22 7 12 1018.5 1018.5 0.0
15/11:30am 24.1 24.7 18.5 71 3.5 SE 13 20 7 11 1018.7 1018.7 0.0
15/11:00am 23.6 24.2 17.6 69 3.7 SE 11 24 6 13 1018.8 1018.8 0.0
15/10:30am 23.9 24.3 18.1 70 3.6 SE 13 22 7 12 1018.5 1018.5 0.0
15/10:00am 23.5 24.3 18.2 72 3.3 SE 11 20 6 11 1018.1 1018.1 0.0
15/09:30am 23.3 23.7 17.3 69 3.7 SE 11 19 6 10 1018.0 1018.0 0.0
15/09:00am 25.3 25.7 16.4 57 5.5 SSE 9 15 5 8 1017.4 1017.4 0.0
15/08:30am 24.2 25.6 17.4 65 4.2 ESE 6 9 3 5 1017.1 1017.1 0.0
15/08:00am 22.1 23.9 17.5 75 2.8 ESE 4 7 2 4 1016.8 1016.8 0.0
15/07:30am 19.5 22.1 17.5 88 1.2 CALM 0 0 0 0 1016.4 1016.4 0.0
15/07:00am 16.9 18.9 16.1 95 0.5 CALM 0 0 0 0 1016.0 1016.0 0.0
15/06:30am 15.3 16.8 14.7 96 0.3 CALM 0 0 0 0 1015.7 1015.7 0.0
15/06:00am 14.9 16.3 14.3 96 0.3 CALM 0 0 0 0 1015.3 1015.3 0.0
15/05:30am 15.3 16.8 14.7 96 0.3 CALM 0 0 0 0 1014.9 1014.9 0.0
15/05:00am 15.5 17.1 15.0 97 0.3 CALM 0 0 0 0 1014.7 1014.7 0.0
15/04:30am 15.3 16.8 14.7 96 0.3 CALM 0 0 0 0 1014.6 1014.6 0.0
15/04:00am 15.7 17.4 15.1 96 0.3 CALM 0 0 0 0 1014.6 1014.6 0.0
15/03:30am 16.0 17.8 15.4 96 0.3 CALM 0 0 0 0 1014.5 1014.5 0.0
15/03:00am 16.4 18.3 15.8 96 0.4 CALM 0 0 0 0 1014.6 1014.6 0.0
15/02:30am 16.6 18.6 16.0 96 0.4 CALM 0 0 0 0 1014.6 1014.6 0.0
15/02:00am 16.7 18.7 16.1 96 0.4 CALM 0 0 0 0 1014.9 1014.9 0.0
15/01:30am 17.0 19.2 16.4 96 0.4 CALM 0 0 0 0 1015.2 1015.2 0.0
15/01:00am 17.0 19.1 16.2 95 0.5 CALM 0 0 0 0 1015.4 1015.4 0.0
15/12:30am 18.1 20.6 17.3 95 0.5 CALM 0 0 0 0 1015.6 1015.6 0.0
15/12:00am 18.5 21.1 17.5 94 0.6 CALM 0 0 0 0 1015.9 1015.9 0.0
 
Date/Time
EDT
Temp
°C
App
Temp
°C
Dew
Point
°C
Rel
Hum
%
Delta-T
°C
Wind Press
QNH
hPa
Press
MSL
hPa
Rain since
9am
mm
Dir  Spd
km/h
Gust
km/h
Spd
kts
Gust
kts
14/11:30pm 19.3 22.2 18.1 93 0.7 CALM 0 0 0 0 1016.1 1016.1 0.0
14/11:00pm 19.7 22.7 18.4 92 0.8 CALM 0 4 0 2 1016.1 1016.1 0.0
14/10:30pm 19.7 22.7 18.4 92 0.8 CALM 0 0 0 0 1016.2 1016.2 0.0
14/10:00pm 19.9 22.9 18.4 91 0.9 CALM 0 0 0 0 1016.2 1016.2 0.0
14/09:30pm 20.1 23.2 18.6 91 0.9 CALM 0 0 0 0 1016.0 1016.0 0.0
14/09:00pm 20.2 22.9 18.7 91 0.9 N 2 6 1 3 1015.9 1015.9 0.0
14/08:30pm 20.6 23.2 18.5 88 1.3 N 2 4 1 2 1015.8 1015.8 0.0
14/08:00pm 20.6 22.8 18.4 87 1.4 NNE 4 7 2 4 1015.7 1015.7 0.0
14/07:30pm 20.9 23.9 18.5 86 1.5 CALM 0 0 0 0 1015.6 1015.6 0.0
14/07:00pm 21.3 24.3 18.5 84 1.8 CALM 0 0 0 0 1015.4 1015.4 0.0
14/06:30pm 21.5 24.4 18.3 82 2.0 CALM 0 0 0 0 1015.1 1015.1 0.0
14/06:00pm 21.9 24.8 18.3 80 2.2 CALM 0 0 0 0 1015.1 1015.1 0.0
14/05:30pm 22.0 24.8 18.0 78 2.5 CALM 0 0 0 0 1015.1 1015.1 0.0
14/05:00pm 22.1 24.4 17.7 76 2.7 ENE 2 4 1 2 1015.1 1015.1 0.0
14/04:30pm 22.7 24.9 18.3 76 2.8 E 4 9 2 5 1014.9 1014.9 0.0
14/04:00pm 22.8 24.3 18.1 75 2.9 ESE 7 11 4 6 1014.8 1014.8 0.0
14/03:30pm 22.7 24.1 17.8 74 3.0 ESE 7 11 4 6 1014.8 1014.8 0.0
14/03:00pm 23.3 25.0 18.0 72 3.3 E 6 9 3 5 1015.2 1015.2 0.0
14/02:30pm 24.0 25.5 18.0 69 3.8 ESE 7 9 4 5 1015.4 1015.4 0.0
14/02:00pm 23.7 25.5 17.4 68 3.9 ENE 4 6 2 3 1015.7 1015.7 0.0
14/01:30pm 23.3 25.4 17.3 69 3.7 NNE 2 4 1 2 1016.0 1016.0 0.0
14/01:00pm 23.4 26.3 18.3 73 3.2 CALM 0 0 0 0 1016.2 1016.2 0.0
14/12:30pm 22.6 25.1 17.3 72 3.3 CALM 0 4 0 2 1016.5 1016.5 0.0
14/12:00pm 22.5 25.0 17.2 72 3.3 CALM 0 4 0 2 1016.6 1016.6 0.0
14/11:30am 22.6 25.3 17.7 74 3.0 CALM 0 6 0 3 1016.8 1016.8 0.0
14/11:00am 21.6 23.7 16.3 72 3.2 CALM 0 4 0 2 1017.0 1017.0 0.0
14/10:30am 21.9 23.4 16.6 72 3.2 SSW 4 6 2 3 1016.7 1016.7 0.0
14/10:00am 20.7 22.4 16.1 75 2.8 SSE 2 6 1 3 1016.8 1016.8 0.0
14/09:30am 20.4 21.8 16.4 78 2.4 SSE 4 6 2 3 1016.8 1016.8 0.0
14/09:00am 19.4 20.8 15.5 78 2.3 WSW 2 6 1 3 1016.9 1016.9 0.0
14/08:30am 17.8 19.8 16.1 90 1.0 CALM 0 0 0 0 1016.4 1016.4 0.0
14/08:00am 16.9 18.7 15.6 92 0.8 CALM 0 0 0 0 1016.1 1016.1 0.0
14/07:30am 16.4 18.1 15.3 93 0.6 CALM 0 0 0 0 1015.9 1015.9 0.0
14/07:00am 15.9 17.6 15.1 95 0.5 CALM 0 0 0 0 1015.7 1015.7 0.0
14/06:30am 15.1 16.5 14.5 96 0.3 CALM 0 0 0 0 1015.4 1015.4 0.0
14/06:00am 14.8 16.1 14.2 96 0.3 CALM 0 0 0 0 1015.1 1015.1 0.0
14/05:30am 14.7 16.0 14.1 96 0.3 CALM 0 0 0 0 1014.8 1014.8 0.0
14/05:00am 14.6 15.9 14.0 96 0.3 CALM 0 0 0 0 1014.6 1014.6 0.0
14/04:30am 14.7 16.0 14.1 96 0.3 CALM 0 0 0 0 1014.7 1014.7 0.0
14/04:00am 14.7 15.9 13.9 95 0.4 CALM 0 0 0 0 1014.7 1014.7 0.0
14/03:30am 14.5 15.7 13.7 95 0.4 CALM 0 0 0 0 1014.8 1014.8 0.0
14/03:00am 14.9 16.1 13.9 94 0.6 CALM 0 0 0 0 1014.7 1014.7 0.0
14/02:30am 15.1 16.5 14.3 95 0.5 CALM 0 0 0 0 1014.8 1014.8 0.0
14/02:00am 15.3 16.7 14.3 94 0.6 CALM 0 0 0 0 1015.0 1015.0 0.0
14/01:30am 16.1 17.7 15.0 93 0.6 CALM 0 0 0 0 1015.3 1015.3 0.0
14/01:00am 16.2 17.7 14.7 91 0.9 CALM 0 6 0 3 1015.7 1015.7 0.0
14/12:30am 16.6 18.2 14.8 89 1.0 CALM 0 0 0 0 1015.9 1015.9 0.0
14/12:00am 17.2 18.8 14.8 86 1.4 CALM 0 0 0 0 1016.1 1016.1 0.0
 
Date/Time
EDT
Temp
°C
App
Temp
°C
Dew
Point
°C
Rel
Hum
%
Delta-T
°C
Wind Press
QNH
hPa
Press
MSL
hPa
Rain since
9am
mm
Dir  Spd
km/h
Gust
km/h
Spd
kts
Gust
kts
13/11:30pm 17.6 18.7 14.7 83 1.7 NE 2 4 1 2 1016.3 1016.3 0.0
13/11:00pm 18.4 20.0 14.9 80 2.0 CALM 0 4 0 2 1016.5 1016.5 0.0
13/10:30pm 19.1 20.4 15.2 78 2.3 NE 2 4 1 2 1016.6 1016.6 0.0
13/10:00pm 19.8 21.2 15.4 76 2.6 N 2 6 1 3 1016.9 1016.9 0.0
13/09:30pm 20.0 21.8 15.6 76 2.6 CALM 0 4 0 2 1016.8 1016.8 0.0
13/09:00pm 20.4 21.2 15.8 75 2.7 NE 6 9 3 5 1016.5 1016.5 0.0
13/08:30pm 20.4 21.6 16.0 76 2.6 ENE 4 9 2 5 1016.4 1016.4 0.0
13/08:00pm 20.8 21.7 16.2 75 2.8 ENE 6 11 3 6 1016.4 1016.4 0.0
13/07:30pm 21.2 22.0 16.4 74 2.9 E 7 11 4 6 1016.5 1016.5 0.0
13/07:00pm 21.9 22.6 16.2 70 3.4 E 7 19 4 10 1016.4 1016.4 0.0
13/06:30pm 22.9 22.9 16.2 66 4.1 NE 11 19 6 10 1016.1 1016.1 0.0
13/06:00pm 24.1 24.5 16.4 62 4.7 ENE 9 17 5 9 1015.5 1015.5 0.0
13/05:30pm 24.0 23.8 17.5 67 4.0 ESE 15 20 8 11 1015.5 1015.5 0.0
13/05:00pm 24.4 24.0 17.1 63 4.5 ESE 15 24 8 13 1015.5 1015.5 0.0
13/04:30pm 24.3 23.7 16.6 62 4.7 E 15 24 8 13 1015.5 1015.5 0.0

Latest Capital City Observations: Canberra | Sydney | Melbourne | Brisbane | Adelaide | Perth | Hobart | Darwin

Other Formats:

Comma delimited format used in spreadsheet applications
http://www.bom.gov.au/fwo/IDN60901/IDN60901.95767.axf

JavaScript Object Notation format (JSON) in row-major order
http://www.bom.gov.au/fwo/IDN60901/IDN60901.95767.json